Time;durP1;ratioP1;P1;durP2;ratioP2;P2;SDS_P1;SDS_P2;PMS_P1;PMS_P2;Temp;Humidity;BMP_temperature;BMP_pressure;BME280_temperature;BME280_humidity;BME280_pressure;Samples;Min_cycle;Max_cycle;Signal;HPM_P1;HPM_P2
2022/07/08 00:00:58;;;;;;;6.07;1.33;;;;;;;18.62;48.96;102932.38;4985630;28;113839;-64
2022/07/08 00:03:26;;;;;;;4.43;1.33;;;;;;;18.60;48.91;102939.63;4977681;28;124113;-64
2022/07/08 00:05:54;;;;;;;5.68;1.48;;;;;;;18.60;48.85;102939.63;4986916;28;124366;-64
2022/07/08 00:08:21;;;;;;;4.28;1.15;;;;;;;18.57;49.09;102939.75;4988391;28;113372;-64
2022/07/08 00:10:48;;;;;;;5.10;1.25;;;;;;;18.56;48.95;102943.41;4995319;28;113795;-64
2022/07/08 00:13:15;;;;;;;5.55;1.27;;;;;;;18.54;49.26;102939.94;4974646;28;124827;-64
2022/07/08 00:15:42;;;;;;;8.05;1.27;;;;;;;18.51;49.30;102935.53;4981374;28;124159;-64
2022/07/08 00:18:10;;;;;;;4.75;1.33;;;;;;;18.53;49.29;102944.41;4977656;28;115399;-64
2022/07/08 00:20:37;;;;;;;4.28;1.55;;;;;;;18.54;49.08;102945.28;4976823;28;114785;-64
2022/07/08 00:23:04;;;;;;;3.50;1.33;;;;;;;18.53;49.29;102955.13;4981793;28;124081;-64
2022/07/08 00:25:31;;;;;;;7.22;1.67;;;;;;;18.54;49.35;102950.66;4995211;28;122904;-64
2022/07/08 00:27:58;;;;;;;4.63;1.30;;;;;;;18.53;49.41;102951.59;4992869;28;114158;-64
2022/07/08 00:30:26;;;;;;;6.85;1.60;;;;;;;18.52;49.54;102947.19;4995894;28;114277;-64
2022/07/08 00:32:53;;;;;;;6.13;1.65;;;;;;;18.51;49.37;102950.78;4992671;28;124071;-63
2022/07/08 00:35:20;;;;;;;4.93;1.40;;;;;;;18.49;49.57;102951.72;4984956;28;124109;-64
2022/07/08 00:37:47;;;;;;;7.78;1.73;;;;;;;18.49;49.49;102949.03;4987034;28;114243;-64
2022/07/08 00:40:14;;;;;;;5.70;1.30;;;;;;;18.49;49.71;102951.72;4982776;28;114194;-64
2022/07/08 00:42:42;;;;;;;4.65;1.30;;;;;;;18.49;49.57;102949.03;4992660;28;124490;-64
2022/07/08 00:45:09;;;;;;;6.78;1.60;;;;;;;18.51;49.57;102950.78;4980468;28;124288;-64
2022/07/08 00:47:36;;;;;;;6.57;1.50;;;;;;;18.50;49.69;102949.94;4995733;28;115366;-65
2022/07/08 00:50:04;;;;;;;6.20;1.33;;;;;;;18.51;49.57;102950.78;4991403;28;115954;-65
2022/07/08 00:52:31;;;;;;;4.60;1.38;;;;;;;18.51;49.48;102945.41;4979839;28;123878;-65
2022/07/08 00:55:00;;;;;;;4.70;1.55;;;;;;;18.51;49.43;102945.41;4986795;28;124080;-65
2022/07/08 00:57:27;;;;;;;8.50;1.67;;;;;;;18.52;49.69;102949.84;4991760;28;114366;-65
2022/07/08 00:59:55;;;;;;;5.03;1.40;;;;;;;18.53;49.60;102954.28;4977567;28;114133;-65
2022/07/08 01:02:22;;;;;;;7.32;2.05;;;;;;;18.51;49.61;102950.78;4986043;28;124090;-65
2022/07/08 01:04:50;;;;;;;4.55;1.60;;;;;;;18.52;49.57;102957.91;4985872;28;123795;-64
2022/07/08 01:07:18;;;;;;;4.32;1.20;;;;;;;18.53;49.77;102948.91;4990955;28;114209;-64
2022/07/08 01:09:46;;;;;;;5.95;1.45;;;;;;;18.52;49.63;102957.91;4985294;28;114841;-64
2022/07/08 01:12:13;;;;;;;5.68;1.40;;;;;;;18.49;49.65;102954.41;4971963;28;123873;-64
2022/07/08 01:14:40;;;;;;;5.50;1.50;;;;;;;18.47;49.61;102953.59;4974713;28;123695;-64
2022/07/08 01:17:08;;;;;;;8.02;2.08;;;;;;;18.44;49.66;102964.50;4981405;28;114081;-64
2022/07/08 01:19:35;;;;;;;4.93;1.40;;;;;;;18.42;49.69;102963.69;4987667;28;113979;-64
2022/07/08 01:22:02;;;;;;;5.80;1.52;;;;;;;18.41;49.92;102961.94;4988399;28;124804;-64
2022/07/08 01:24:30;;;;;;;7.65;1.63;;;;;;;18.40;49.79;102965.56;4988273;28;123946;-64
2022/07/08 01:26:57;;;;;;;3.88;1.30;;;;;;;18.38;49.73;102961.19;4982034;28;114548;-64
2022/07/08 01:29:24;;;;;;;4.63;1.45;;;;;;;18.37;49.79;102959.47;4985594;28;114361;-63
2022/07/08 01:31:59;;;;;;;4.93;1.40;;;;;;;18.33;49.87;102953.34;4984501;28;124783;-65
2022/07/08 01:34:26;;;;;;;;;;;;;;;18.29;49.45;102951.75;4969775;28;123863;-65
2022/07/08 01:36:53;;;;;;;6.95;1.50;;;;;;;18.28;49.64;102950.00;4978432;28;114583;-65
2022/07/08 01:39:20;;;;;;;7.20;1.30;;;;;;;18.25;49.85;102960.84;4988958;28;113752;-65
2022/07/08 01:41:47;;;;;;;5.55;1.63;;;;;;;18.25;49.75;102960.84;4980689;28;123852;-65
2022/07/08 01:44:15;;;;;;;3.47;1.33;;;;;;;18.23;49.97;102962.72;4978118;28;124493;-65
2022/07/08 01:46:42;;;;;;;6.05;1.58;;;;;;;18.23;49.82;102952.00;4970049;28;114248;-65
2022/07/08 01:49:13;;;;;;;6.22;1.70;;;;;;;18.21;49.91;102959.25;4969790;28;114100;-65
2022/07/08 01:51:40;;;;;;;8.05;1.65;;;;;;;18.18;50.03;102954.03;4978290;28;124764;-65
2022/07/08 01:54:08;;;;;;;7.57;1.90;;;;;;;18.17;50.13;102946.91;4973595;28;123966;-65
2022/07/08 01:56:42;;;;;;;6.03;1.60;;;;;;;18.13;50.01;102945.31;4978558;28;115037;-65
2022/07/08 01:59:09;;;;;;;6.07;1.63;;;;;;;18.09;50.10;102945.44;4989045;28;115026;-66
2022/07/08 02:01:36;;;;;;;7.60;1.45;;;;;;;18.05;50.08;102946.50;4977691;28;124299;-65
2022/07/08 02:04:04;;;;;;;4.28;1.58;;;;;;;18.02;50.07;102949.31;4970317;28;124944;-64
2022/07/08 02:06:31;;;;;;;6.60;1.60;;;;;;;17.98;50.13;102953.06;4974332;28;114554;-64
2022/07/08 02:08:58;;;;;;;3.45;1.30;;;;;;;17.97;50.24;102956.69;4988680;28;113777;-64
2022/07/08 02:14:31;;;;;;;5.53;1.60;;;;;;;17.94;50.26;102951.44;4969211;28;124104;-63
2022/07/08 02:16:58;;;;;;;3.95;1.30;;;;;;;17.91;50.22;102951.56;4968846;28;114204;-64
2022/07/08 02:19:25;;;;;;;6.28;1.25;;;;;;;17.87;50.25;102956.19;4977693;28;113540;-64
2022/07/08 02:21:52;;;;;;;5.90;1.40;;;;;;;17.83;50.32;102956.38;4988020;28;123524;-63
2022/07/08 02:24:19;;;;;;;4.32;1.40;;;;;;;17.79;50.34;102952.06;4974558;28;123968;-64
2022/07/08 02:26:47;;;;;;;4.50;1.35;;;;;;;17.76;50.36;102957.53;4982181;28;114885;-64
2022/07/08 02:29:14;;;;;;;7.60;1.52;;;;;;;17.73;50.61;102957.69;4982979;28;114053;-64
2022/07/08 02:31:41;;;;;;;5.07;1.50;;;;;;;17.70;50.61;102951.50;4990310;28;124622;-63
2022/07/08 02:34:09;;;;;;;5.40;1.30;;;;;;;17.68;50.59;102953.38;4976037;28;124481;-63
2022/07/08 02:36:36;;;;;;;3.13;1.08;;;;;;;17.65;50.66;102950.84;4982150;28;114364;-64
2022/07/08 02:39:04;;;;;;;8.30;1.75;;;;;;;17.63;50.74;102958.06;4968899;28;114582;-64
2022/07/08 02:41:32;;;;;;;4.35;1.48;;;;;;;17.61;50.82;102948.31;4971434;28;124199;-64
2022/07/08 02:43:59;;;;;;;5.50;1.50;;;;;;;17.58;50.83;102943.97;4990606;28;122942;-64
2022/07/08 02:46:26;;;;;;;5.78;1.40;;;;;;;17.56;50.79;102951.22;4989861;28;115256;-65
2022/07/08 02:48:53;;;;;;;7.90;1.48;;;;;;;17.53;50.83;102951.31;4982532;28;115312;-65
2022/07/08 02:51:21;;;;;;;8.20;1.55;;;;;;;17.51;50.79;102958.56;4987443;28;123948;-65
2022/07/08 02:53:48;;;;;;;6.22;1.55;;;;;;;17.48;50.93;102958.69;4975303;28;123962;-65
2022/07/08 02:56:15;;;;;;;5.20;1.40;;;;;;;17.44;50.85;102957.94;4988405;28;114396;-65
2022/07/08 02:58:42;;;;;;;6.03;1.40;;;;;;;17.40;51.03;102960.78;4988877;28;115209;-65
2022/07/08 03:01:09;;;;;;;6.13;1.83;;;;;;;17.36;50.84;102954.69;4979297;28;124982;-65
2022/07/08 03:03:37;;;;;;;3.20;1.45;;;;;;;17.31;51.12;102957.56;4984699;28;123911;-64
2022/07/08 03:06:04;;;;;;;6.47;1.30;;;;;;;17.27;51.03;102955.94;4977778;28;113083;-63
2022/07/08 03:08:31;;;;;;;8.63;1.48;;;;;;;17.25;51.07;102957.81;4986479;28;113982;-63
2022/07/08 03:10:59;;;;;;;4.10;1.60;;;;;;;17.22;51.07;102957.91;4973784;28;124763;-63
2022/07/08 03:13:26;;;;;;;7.40;1.80;;;;;;;17.19;51.23;102963.38;4974324;28;125102;-65
2022/07/08 03:15:53;;;;;;;8.02;1.60;;;;;;;17.16;51.27;102966.19;4974539;28;114241;-65
2022/07/08 03:18:20;;;;;;;5.97;1.35;;;;;;;17.12;51.13;102968.13;4987785;28;113011;-65
2022/07/08 03:20:48;;;;;;;5.72;1.80;;;;;;;17.10;51.50;102969.09;4989249;28;123906;-65
2022/07/08 03:23:15;;;;;;;6.18;1.80;;;;;;;17.06;51.51;102967.47;4988203;28;122703;-65
2022/07/08 03:25:42;;;;;;;6.88;1.80;;;;;;;17.03;51.40;102967.59;4987702;28;115077;-65
2022/07/08 03:28:09;;;;;;;5.80;1.90;;;;;;;17.02;51.57;102965.84;4986705;28;114544;-64
2022/07/08 03:30:37;;;;;;;7.82;2.00;;;;;;;16.98;51.85;102957.06;4974970;28;124517;-63
2022/07/08 03:33:05;;;;;;;8.35;2.00;;;;;;;16.97;51.74;102957.13;4968441;28;123600;-64
2022/07/08 03:35:32;;;;;;;5.95;2.00;;;;;;;16.93;51.90;102962.59;4967678;28;115595;-64
2022/07/08 03:37:59;;;;;;;6.30;2.25;;;;;;;16.91;51.82;102964.47;4986149;28;115633;-63
2022/07/08 03:43:12;;;;;;;5.55;2.28;;;;;;;16.86;51.93;102966.44;4967341;28;124251;-64
2022/07/08 03:45:39;;;;;;;6.97;2.13;;;;;;;16.84;52.04;102973.66;4968061;28;114333;-63
2022/07/08 03:48:06;;;;;;;11.52;3.10;;;;;;;16.84;52.30;102972.75;4981927;28;113806;-64
2022/07/08 03:50:34;;;;;;;7.30;2.83;;;;;;;16.83;52.39;102974.56;4978356;28;124543;-64
2022/07/08 03:53:01;;;;;;;7.28;2.35;;;;;;;16.81;52.34;102968.38;4990300;28;125030;-64
2022/07/08 03:55:28;;;;;;;5.75;2.50;;;;;;;16.81;52.58;102973.72;4975055;28;114483;-63
2022/07/08 03:57:57;;;;;;;10.10;2.70;;;;;;;16.79;52.48;102975.59;4978373;28;114530;-63
2022/07/08 04:00:25;;;;;;;4.72;2.60;;;;;;;16.79;52.68;102975.59;4988108;28;124120;-64
2022/07/08 04:02:52;;;;;;;9.60;2.95;;;;;;;16.78;52.70;102973.81;4975251;28;124179;-64
2022/07/08 04:05:19;;;;;;;8.70;2.83;;;;;;;16.78;52.81;102978.31;4971779;28;114002;-64
2022/07/08 04:07:46;;;;;;;6.13;2.67;;;;;;;16.76;52.85;102983.72;4975219;28;114528;-64
2022/07/08 04:10:15;;;;;;;10.52;3.35;;;;;;;16.76;52.88;102975.69;4984224;28;123307;-64
2022/07/08 04:12:42;;;;;;;10.20;2.85;;;;;;;16.76;52.97;102981.03;4976665;28;123625;-63
2022/07/08 04:15:10;;;;;;;7.18;2.65;;;;;;;16.77;53.25;102982.81;4985539;28;114974;-63
2022/07/08 04:17:37;;;;;;;6.72;3.35;;;;;;;16.76;53.02;102981.03;4972025;28;113904;-65
2022/07/08 04:20:05;;;;;;;7.07;2.97;;;;;;;16.75;53.11;102990.03;4987018;28;123529;-65
2022/07/08 04:22:32;;;;;;;9.95;3.15;;;;;;;16.74;53.23;102988.25;4987576;28;124760;-65
2022/07/08 04:24:59;;;;;;;9.98;3.22;;;;;;;16.76;53.36;102986.41;4988802;28;115775;-65
2022/07/08 04:27:26;;;;;;;10.13;3.38;;;;;;;16.77;53.25;102998.84;4987100;28;114778;-65
2022/07/08 04:29:53;;;;;;;8.48;3.13;;;;;;;16.79;53.37;103001.47;4979322;28;125040;-65
2022/07/08 04:32:21;;;;;;;11.50;3.20;;;;;;;16.80;53.34;103001.44;4986217;28;123424;-65
2022/07/08 04:34:48;;;;;;;6.30;3.20;;;;;;;16.82;53.62;102996.94;4990547;28;114271;-65
2022/07/08 04:37:15;;;;;;;8.73;3.40;;;;;;;16.83;53.53;102993.31;4977523;28;114450;-65
2022/07/08 04:39:43;;;;;;;8.65;3.30;;;;;;;16.85;53.63;102991.44;4985962;28;123879;-65
2022/07/08 04:42:10;;;;;;;11.88;3.50;;;;;;;16.87;53.63;102994.94;4990699;28;123281;-65
2022/07/08 04:44:37;;;;;;;8.15;3.45;;;;;;;16.90;53.69;102994.81;4975460;28;115411;-65
2022/07/08 04:47:04;;;;;;;6.00;3.53;;;;;;;16.92;53.90;103003.66;4988883;28;114160;-65
2022/07/08 04:49:32;;;;;;;8.52;3.53;;;;;;;16.97;53.85;103010.66;4978430;28;124247;-65
2022/07/08 04:51:59;;;;;;;9.95;3.25;;;;;;;17.03;54.21;103013.13;4974285;28;123978;-65
2022/07/08 04:54:26;;;;;;;8.23;3.38;;;;;;;17.13;54.71;103006.47;4990440;28;115360;-65
2022/07/08 04:56:53;;;;;;;8.30;3.03;;;;;;;17.24;54.67;103014.97;4976831;28;114028;-65
2022/07/08 04:59:21;;;;;;;7.80;3.10;;;;;;;17.37;54.68;103014.50;4981325;28;123935;-65
2022/07/08 05:01:48;;;;;;;10.52;2.80;;;;;;;17.50;54.63;103015.78;4969589;28;124106;-65
2022/07/08 05:04:16;;;;;;;7.00;2.55;;;;;;;17.65;54.37;103022.28;4977659;28;114604;-65
2022/07/08 05:06:43;;;;;;;8.52;2.60;;;;;;;17.76;54.12;103021.88;4991968;28;113176;-65
2022/07/08 05:09:10;;;;;;;9.85;3.13;;;;;;;17.85;53.89;103026.91;4989282;28;124011;-65
2022/07/08 05:11:37;;;;;;;6.90;2.70;;;;;;;17.92;53.86;103033.75;4977928;28;123855;-65
2022/07/08 05:14:05;;;;;;;8.30;3.03;;;;;;;17.98;53.48;103033.50;4983915;28;115917;-65
2022/07/08 05:16:32;;;;;;;8.88;3.65;;;;;;;18.04;53.54;103035.91;4980892;28;114741;-65
2022/07/08 05:19:00;;;;;;;8.07;3.00;;;;;;;18.09;53.45;103044.66;4977340;28;124248;-65
2022/07/08 05:21:28;;;;;;;7.57;2.90;;;;;;;18.13;53.21;103041.84;4989077;28;124659;-65
2022/07/08 05:23:55;;;;;;;8.40;3.05;;;;;;;18.14;53.30;103043.59;4991133;28;114265;-65
2022/07/08 05:26:22;;;;;;;8.15;2.90;;;;;;;18.14;53.31;103048.94;4982985;28;113841;-64
2022/07/08 05:28:52;;;;;;;9.07;3.00;;;;;;;18.16;53.16;103044.38;4982987;28;124526;-64
2022/07/08 05:31:19;;;;;;;7.20;2.70;;;;;;;18.18;53.33;103039.88;4971262;28;124186;-64
2022/07/08 05:33:47;;;;;;;7.63;3.40;;;;;;;18.22;53.08;103057.56;4982371;28;114625;-65
2022/07/08 05:36:14;;;;;;;10.98;3.30;;;;;;;18.23;53.23;103049.47;4989075;28;114285;-65
2022/07/08 05:38:41;;;;;;;9.43;3.08;;;;;;;18.26;53.28;103053.81;4989926;28;125134;-65
2022/07/08 05:41:08;;;;;;;6.93;3.05;;;;;;;18.32;53.42;103053.53;4988923;28;124608;-65
2022/07/08 05:43:35;;;;;;;8.38;3.05;;;;;;;18.37;53.20;103056.91;4989775;28;114453;-65
2022/07/08 05:46:03;;;;;;;7.32;3.45;;;;;;;18.41;53.18;103057.66;4990490;28;112746;-65
2022/07/08 05:48:30;;;;;;;7.10;3.33;;;;;;;18.47;53.24;103058.25;4987410;28;123851;-65
2022/07/08 05:50:58;;;;;;;6.60;3.45;;;;;;;18.52;53.26;103054.53;4991032;28;122673;-65
2022/07/08 05:53:25;;;;;;;9.85;3.55;;;;;;;18.56;53.25;103053.44;4985610;28;114601;-65
2022/07/08 05:55:52;;;;;;;9.13;3.28;;;;;;;18.62;52.99;103055.84;4988074;28;113664;-65
2022/07/08 05:58:19;;;;;;;6.88;2.97;;;;;;;18.66;52.94;103057.47;4983931;28;124011;-66
2022/07/08 06:00:47;;;;;;;8.15;3.28;;;;;;;18.71;53.15;103055.44;4990696;28;124242;-65
2022/07/08 06:03:14;;;;;;;7.68;2.80;;;;;;;18.77;52.76;103055.16;4988671;28;115280;-65
2022/07/08 06:05:41;;;;;;;6.35;2.70;;;;;;;18.83;52.90;103054.91;4987954;28;114996;-65
2022/07/08 06:08:08;;;;;;;9.15;3.03;;;;;;;18.91;52.84;103056.41;4986120;28;124453;-65
2022/07/08 06:10:35;;;;;;;7.60;2.30;;;;;;;19.00;52.90;103056.84;4983507;28;123772;-65
2022/07/08 06:13:03;;;;;;;7.07;2.05;;;;;;;19.12;52.82;103063.50;4971648;28;114125;-65
2022/07/08 06:15:30;;;;;;;5.78;2.40;;;;;;;19.22;52.77;103067.50;4974487;28;113491;-65
2022/07/08 06:17:57;;;;;;;5.28;2.22;;;;;;;19.31;52.60;103059.94;4979266;28;124735;-65
2022/07/08 06:20:24;;;;;;;10.10;2.60;;;;;;;19.42;52.50;103073.75;4973731;28;124008;-65
2022/07/08 06:22:52;;;;;;;5.22;1.98;;;;;;;19.51;52.03;103067.94;4977725;28;114177;-65
2022/07/08 06:25:19;;;;;;;7.20;2.33;;;;;;;19.57;52.24;103067.66;4989275;28;113784;-65
2022/07/08 06:27:47;;;;;;;8.13;2.10;;;;;;;19.68;52.27;103066.28;4981338;28;123844;-64
2022/07/08 06:30:14;;;;;;;7.50;2.03;;;;;;;19.80;51.86;103073.78;4981981;28;124175;-64
2022/07/08 06:32:41;;;;;;;7.28;1.80;;;;;;;19.93;51.75;103069.56;4975560;28;115008;-65
2022/07/08 06:35:10;;;;;;;6.43;1.65;;;;;;;20.04;51.38;103066.31;4978575;28;113978;-66
2022/07/08 06:37:38;;;;;;;8.00;2.33;;;;;;;20.15;51.47;103063.94;4988430;28;123324;-65
2022/07/08 06:40:06;;;;;;;4.32;1.80;;;;;;;20.27;51.03;103070.56;4982024;28;124439;-66
2022/07/08 06:42:33;;;;;;;7.32;1.85;;;;;;;20.39;50.89;103078.00;4982908;28;114914;-66
2022/07/08 06:45:05;;;;;;;6.78;1.85;;;;;;;20.49;51.07;103082.91;4988433;28;113371;-65
2022/07/08 06:47:32;;;;;;;8.32;2.38;;;;;;;20.63;50.88;103080.41;4983591;28;123924;-65
2022/07/08 06:49:59;;;;;;;7.97;2.30;;;;;;;20.76;50.50;103076.13;4981923;28;123962;-65
2022/07/08 06:52:26;;;;;;;6.15;1.75;;;;;;;20.87;50.19;103074.69;4977581;28;114992;-65
2022/07/08 06:54:54;;;;;;;8.70;1.70;;;;;;;20.98;49.87;103072.28;4973449;28;114856;-65
2022/07/08 06:57:21;;;;;;;4.97;1.88;;;;;;;21.06;49.67;103067.38;4983032;28;124584;-66
2022/07/08 06:59:48;;;;;;;8.18;2.10;;;;;;;21.14;49.77;103067.81;4984168;28;124681;-65
2022/07/08 07:02:38;;;;;;;5.28;1.50;;;;;;;21.24;49.40;103070.00;4972010;28;114229;-65
2022/07/08 07:05:07;;;;;;;7.97;1.90;;;;;;;21.34;49.65;103076.63;4977210;28;113861;-65
2022/07/08 07:07:34;;;;;;;5.40;1.88;;;;;;;21.43;49.36;103065.31;4975092;28;124609;-66
2022/07/08 07:10:02;;;;;;;6.28;1.63;;;;;;;21.51;49.07;103078.41;4989819;28;124303;-66
2022/07/08 07:12:29;;;;;;;7.63;1.90;;;;;;;21.53;48.87;103072.00;4977082;28;114180;-65
2022/07/08 07:14:56;;;;;;;6.65;1.73;;;;;;;21.58;48.67;103063.63;4970204;28;114164;-65
2022/07/08 07:17:23;;;;;;;9.23;2.00;;;;;;;21.63;48.63;103066.09;4978560;28;124800;-65
2022/07/08 07:19:51;;;;;;;7.03;1.90;;;;;;;21.70;48.58;103070.16;4975681;28;124375;-65
2022/07/08 07:22:26;;;;;;;6.53;1.60;;;;;;;21.76;48.55;103069.81;4971328;28;114592;-65
2022/07/08 07:24:53;;;;;;;5.68;1.52;;;;;;;21.80;48.29;103071.38;4973222;28;115095;-65
2022/07/08 07:27:20;;;;;;;4.30;1.40;;;;;;;21.85;48.37;103074.69;4989395;28;123133;-65
2022/07/08 07:29:47;;;;;;;8.75;2.10;;;;;;;21.90;48.16;103069.88;4982726;28;122800;-66
2022/07/08 07:32:14;;;;;;;6.30;1.58;;;;;;;21.97;48.14;103068.56;4970839;28;114528;-65
2022/07/08 07:34:41;;;;;;;8.35;1.75;;;;;;;22.04;48.09;103065.50;4980895;28;113901;-65
2022/07/08 07:37:09;;;;;;;6.47;1.83;;;;;;;22.14;48.46;103061.31;4975494;28;124238;-65
2022/07/08 07:39:36;;;;;;;5.30;1.35;;;;;;;22.27;48.00;103070.47;4968344;28;124664;-64
2022/07/08 07:42:03;;;;;;;4.95;1.35;;;;;;;22.32;47.92;103067.47;4975448;28;115677;-68
2022/07/08 07:44:31;;;;;;;8.77;1.50;;;;;;;22.40;47.78;103072.44;4976445;28;115391;-65
2022/07/08 07:46:58;;;;;;;6.78;1.38;;;;;;;22.46;47.59;103072.94;4986107;28;124292;-65
2022/07/08 07:49:25;;;;;;;6.45;1.40;;;;;;;22.55;47.56;103071.53;4976221;28;125463;-64
2022/07/08 07:51:52;;;;;;;6.45;1.33;;;;;;;22.63;47.69;103074.63;4982360;28;114894;-65
2022/07/08 07:54:19;;;;;;;5.35;1.30;;;;;;;22.71;47.17;103064.19;4978379;28;114191;-64
2022/07/08 07:56:46;;;;;;;5.80;1.40;;;;;;;22.78;47.07;103066.56;4982894;28;125083;-65
2022/07/08 07:59:13;;;;;;;6.15;1.60;;;;;;;22.81;47.02;103069.03;4984281;28;123827;-65
2022/07/08 08:01:40;;;;;;;6.28;2.10;;;;;;;22.91;46.95;103070.22;4988291;28;115115;-65
2022/07/08 08:04:08;;;;;;;5.90;1.42;;;;;;;22.98;46.74;103071.59;4977508;28;114589;-66
2022/07/08 08:06:35;;;;;;;4.40;1.52;;;;;;;23.05;46.43;103070.25;4990282;28;125240;-65
2022/07/08 08:09:02;;;;;;;5.57;1.48;;;;;;;23.08;46.14;103075.47;4990853;28;123678;-65
2022/07/08 08:11:29;;;;;;;5.78;1.40;;;;;;;23.10;46.16;103073.53;4980344;28;114363;-65
2022/07/08 08:13:57;;;;;;;3.47;1.20;;;;;;;23.10;45.89;103081.66;4987724;28;114056;-65
2022/07/08 08:16:24;;;;;;;5.25;1.50;;;;;;;23.13;46.04;103086.88;4983273;28;123165;-64
2022/07/08 08:18:51;;;;;;;7.07;1.50;;;;;;;23.18;45.76;103080.31;4984948;28;123403;-64
2022/07/08 08:21:18;;;;;;;4.70;1.42;;;;;;;23.23;45.91;103073.63;4978383;28;114134;-64
2022/07/08 08:23:45;;;;;;;7.47;1.48;;;;;;;23.30;45.93;103075.00;4991352;28;114141;-64
2022/07/08 08:26:13;;;;;;;5.50;1.15;;;;;;;23.41;45.98;103066.16;4990487;28;124033;-65
2022/07/08 08:28:40;;;;;;;4.93;1.25;;;;;;;23.52;45.43;103079.88;4989947;28;123924;-64
2022/07/08 08:31:07;;;;;;;5.15;1.33;;;;;;;23.61;45.39;103077.56;4990760;28;115333;-64
2022/07/08 08:33:34;;;;;;;4.32;1.30;;;;;;;23.70;45.02;103082.38;4990556;28;114794;-64
2022/07/08 08:36:02;;;;;;;6.47;1.40;;;;;;;23.78;44.88;103076.44;4989434;28;123072;-65
2022/07/08 08:38:29;;;;;;;7.53;1.40;;;;;;;23.89;44.80;103077.50;4981459;28;123750;-65
2022/07/08 08:40:59;;;;;;;5.43;1.30;;;;;;;23.98;44.19;103070.63;4989000;28;114236;-65
2022/07/08 08:43:27;;;;;;;4.45;1.20;;;;;;;24.07;43.87;103077.22;4964170;28;113848;-64
2022/07/08 08:45:55;;;;;;;4.43;1.15;;;;;;;24.17;43.82;103072.94;4989501;28;124042;-65
2022/07/08 08:48:24;;;;;;;5.55;1.25;;;;;;;24.28;44.00;103083.94;4977493;28;124391;-64
2022/07/08 08:50:53;;;;;;;6.03;1.45;;;;;;;24.39;43.88;103072.38;4992027;28;114108;-64
2022/07/08 08:53:25;;;;;;;8.50;1.33;;;;;;;24.53;43.70;103082.28;4990446;28;114222;-64
2022/07/08 08:55:55;;;;;;;7.68;1.40;;;;;;;24.65;43.74;103076.00;4972082;28;124147;-65
2022/07/08 08:58:22;;;;;;;6.85;1.40;;;;;;;24.75;43.42;103080.78;4973731;28;123813;-64
2022/07/08 09:00:50;;;;;;;5.05;1.13;;;;;;;24.85;43.33;103071.03;4987278;28;114344;-65
2022/07/08 09:03:17;;;;;;;4.95;1.10;;;;;;;24.99;43.27;103073.59;4985844;28;115289;-65
2022/07/08 09:05:45;;;;;;;5.03;1.35;;;;;;;25.11;42.90;103068.28;4987672;28;123925;-65
2022/07/08 09:08:13;;;;;;;5.55;1.38;;;;;;;25.13;42.15;103059.09;4989290;28;123768;-64
2022/07/08 09:10:59;;;;;;;2.90;0.98;;;;;;;25.13;42.59;103063.63;4982351;28;114309;-65
2022/07/08 09:13:26;;;;;;;5.00;1.25;;;;;;;25.17;42.34;103059.72;4981112;28;114314;-65
2022/07/08 09:15:59;;;;;;;7.60;1.40;;;;;;;25.21;41.99;103055.81;4976844;28;124660;-64
2022/07/08 09:18:34;;;;;;;4.40;1.20;;;;;;;25.24;42.04;103061.03;4981121;28;124634;-64
2022/07/08 09:21:07;;;;;;;8.00;1.60;;;;;;;25.29;42.34;103058.84;4991141;28;115546;-65
2022/07/08 09:23:38;;;;;;;7.47;1.40;;;;;;;25.33;42.25;103060.38;4987008;28;114777;-65
2022/07/08 09:26:08;;;;;;;7.57;1.40;;;;;;;25.37;42.54;103061.00;4988591;28;124563;-64
2022/07/08 09:28:45;;;;;;;5.25;1.27;;;;;;;25.45;41.95;103064.06;4978718;28;125423;-64
2022/07/08 09:31:14;;;;;;;5.50;1.40;;;;;;;25.47;42.38;103066.63;4975562;28;114834;-64
2022/07/08 09:33:45;;;;;;;7.63;1.40;;;;;;;25.51;42.54;103062.72;4970918;28;114306;-64
2022/07/08 09:36:22;;;;;;;5.07;1.27;;;;;;;25.58;42.38;103058.56;4977961;28;124431;-64
2022/07/08 09:38:49;;;;;;;5.95;1.20;;;;;;;25.65;42.09;103059.84;4974128;28;124310;-63
2022/07/08 09:41:20;;;;;;;5.15;1.25;;;;;;;25.68;41.74;103051.47;4976568;28;114949;-64
2022/07/08 09:43:50;;;;;;;5.78;1.20;;;;;;;25.74;41.39;103059.16;4980729;28;114039;-65
2022/07/08 09:46:18;;;;;;;5.35;1.25;;;;;;;25.76;41.19;103057.19;4982617;28;124661;-64
2022/07/08 09:48:45;;;;;;;3.50;0.95;;;;;;;25.80;41.31;103053.25;4983673;28;124015;-64
2022/07/08 09:51:15;;;;;;;4.85;1.20;;;;;;;25.88;41.21;103054.53;4977118;28;114669;-65
2022/07/08 09:53:45;;;;;;;3.72;1.13;;;;;;;26.00;41.40;103059.09;4990909;28;112991;-64
2022/07/08 09:56:12;;;;;;;6.55;1.40;;;;;;;26.15;40.79;103057.91;4976100;28;124060;-64
2022/07/08 09:58:39;;;;;;;5.75;1.27;;;;;;;26.26;40.32;103057.09;4983878;28;124349;-64
2022/07/08 10:01:07;;;;;;;4.43;1.10;;;;;;;26.35;40.52;103055.50;4989082;28;114419;-64
2022/07/08 10:03:37;;;;;;;4.60;1.40;;;;;;;26.43;39.95;103047.63;4980239;28;114713;-64
2022/07/08 10:06:05;;;;;;;8.38;1.40;;;;;;;26.49;39.61;103054.44;4987018;28;125016;-64
2022/07/08 10:08:32;;;;;;;5.22;1.50;;;;;;;26.47;39.44;103045.56;4976140;28;123981;-64
2022/07/08 10:11:05;;;;;;;3.58;1.13;;;;;;;26.49;39.97;103049.88;4978787;28;115382;-65
2022/07/08 10:13:34;;;;;;;5.70;1.33;;;;;;;26.53;39.80;103051.34;4973809;28;114670;-65
2022/07/08 10:16:04;;;;;;;5.15;1.50;;;;;;;26.59;39.71;103050.00;4985100;28;124126;-64
2022/07/08 10:18:38;;;;;;;5.95;1.50;;;;;;;26.59;39.40;103056.34;4982122;28;125622;-64
2022/07/08 10:21:07;;;;;;;3.65;1.30;;;;;;;26.56;39.67;103062.00;4974628;28;114007;-64
2022/07/08 10:23:40;;;;;;;6.18;1.30;;;;;;;26.52;39.74;103055.06;4988307;28;114507;-64
2022/07/08 10:26:08;;;;;;;6.28;1.20;;;;;;;26.52;39.73;103054.19;4982373;28;124375;-64
2022/07/08 10:28:40;;;;;;;4.72;1.30;;;;;;;26.50;39.66;103054.31;4977674;28;124006;-64
2022/07/08 10:31:19;;;;;;;3.95;1.20;;;;;;;26.51;39.25;103050.63;4990662;28;114891;-65
2022/07/08 10:33:48;;;;;;;3.75;1.13;;;;;;;26.52;39.62;103054.19;4989342;28;114133;-64
2022/07/08 10:36:24;;;;;;;7.60;1.25;;;;;;;26.56;39.06;103055.69;4973569;28;124438;-65
2022/07/08 10:38:54;;;;;;;2.95;1.10;;;;;;;26.61;39.56;103054.34;4984713;28;124581;-65
2022/07/08 10:41:25;;;;;;;6.05;1.20;;;;;;;26.71;39.95;103053.63;4980375;28;114878;-65
2022/07/08 10:44:02;;;;;;;5.40;1.25;;;;;;;26.82;39.41;103050.94;4980139;28;113883;-65
2022/07/08 10:46:29;;;;;;;5.38;1.80;;;;;;;26.92;39.55;103046.50;4989218;28;123076;-65
2022/07/08 10:49:01;;;;;;;4.72;1.45;;;;;;;27.04;40.21;103050.09;4984675;28;124227;-65
2022/07/08 10:51:31;;;;;;;5.65;1.45;;;;;;;27.18;39.85;103046.22;4990261;28;114641;-65
2022/07/08 10:54:09;;;;;;;5.18;1.67;;;;;;;27.30;39.94;103047.16;4977229;28;113835;-65
2022/07/08 10:56:49;;;;;;;4.88;1.52;;;;;;;27.34;39.45;103052.19;4990722;28;124097;-64
2022/07/08 10:59:24;;;;;;;3.88;1.27;;;;;;;27.36;39.18;103043.91;4988803;28;124041;-64
2022/07/08 11:02:05;;;;;;;3.70;1.27;;;;;;;27.34;38.95;103043.19;4987697;28;115064;-64
2022/07/08 11:04:34;;;;;;;2.83;1.17;;;;;;;27.28;38.93;103041.81;4988648;28;114951;-64
2022/07/08 11:07:26;;;;;;;4.93;1.45;;;;;;;27.23;39.46;103038.56;4985610;28;123923;-64
2022/07/08 11:09:56;;;;;;;3.50;1.35;;;;;;;27.23;39.14;103038.56;4980624;28;123822;-64
2022/07/08 11:12:26;;;;;;;4.88;1.42;;;;;;;27.29;39.15;103046.25;4971653;28;114120;-64
2022/07/08 11:14:56;;;;;;;4.10;1.48;;;;;;;27.34;38.38;103040.47;4979044;28;114031;-64
2022/07/08 11:17:25;;;;;;;4.53;1.63;;;;;;;27.32;38.51;103043.28;4990269;28;124274;-64
2022/07/08 11:19:54;;;;;;;3.60;1.30;;;;;;;27.29;38.82;103048.97;4979367;28;123745;-64
2022/07/08 11:22:22;;;;;;;5.63;1.40;;;;;;;27.29;39.03;103043.53;4969410;28;113943;-65
2022/07/08 11:24:54;;;;;;;3.35;1.20;;;;;;;27.32;38.67;103048.75;4976853;28;114259;-64
2022/07/08 11:27:40;;;;;;;4.38;1.50;;;;;;;27.37;38.88;103041.06;4988490;28;123095;-65